RUK8294 EGPH-LATI
Flight info
| Callsign | RUK8294 |
|---|---|
| Flight time | N/A |
| Altitude | 37000 |
| Route | TLA6D TLA Y96 NATEB DCT ROKAN M982 TOPPA DCT PODIP DCT TESGA DCT DINKU M867 XERUM DCT BAVAX DCT RADIZ DCT DIGOT DCT NERRA DCT PETAK PETAK3N |
| Aircraft | B738/M-SDE2E3FGHIRWXY/LB1 |
Departure
| Time | 2026-05-05 12:03 |
|---|---|
| Airport | Edinburgh Airport (EGPH) |
Arrival
| Time | N/A |
|---|---|
| Airport | Tirana International Airport Mother Teresa (LATI) |
| Time | Latitude | Longitude | Altitude | Speed | Heading |
|---|---|---|---|---|---|
| 2026-05-05 11:38 | 55.94938 | -3.35986 | 115 ft | 0 kts | 255° |
| 2026-05-05 11:51 | 55.94942 | -3.35964 | 113 ft | 4 kts | 253° |
| 2026-05-05 11:51 | 55.94950 | -3.35918 | 114 ft | 4 kts | 255° |
| 2026-05-05 11:51 | 55.94953 | -3.35875 | 112 ft | 4 kts | 294° |
| 2026-05-05 11:52 | 55.94949 | -3.35863 | 115 ft | 0 kts | 2° |
| 2026-05-05 11:56 | 55.94951 | -3.35863 | 113 ft | 1 kts | 2° |
| 2026-05-05 11:57 | 55.94980 | -3.35855 | 115 ft | 7 kts | 15° |
| 2026-05-05 11:57 | 55.95046 | -3.35800 | 113 ft | 13 kts | 26° |
| 2026-05-05 11:57 | 55.95119 | -3.35869 | 112 ft | 14 kts | 301° |
| 2026-05-05 11:57 | 55.95194 | -3.35983 | 113 ft | 14 kts | 314° |
| 2026-05-05 11:58 | 55.95180 | -3.36146 | 113 ft | 15 kts | 240° |
| 2026-05-05 11:58 | 55.95125 | -3.36309 | 113 ft | 16 kts | 238° |
| 2026-05-05 11:58 | 55.95064 | -3.36487 | 113 ft | 18 kts | 238° |
| 2026-05-05 11:58 | 55.94995 | -3.36687 | 114 ft | 20 kts | 238° |
| 2026-05-05 11:59 | 55.94921 | -3.36907 | 112 ft | 22 kts | 239° |
| 2026-05-05 11:59 | 55.94843 | -3.37137 | 113 ft | 21 kts | 239° |
| 2026-05-05 11:59 | 55.94769 | -3.37355 | 113 ft | 21 kts | 239° |
| 2026-05-05 11:59 | 55.94696 | -3.37571 | 114 ft | 21 kts | 239° |
| 2026-05-05 12:00 | 55.94618 | -3.37802 | 113 ft | 22 kts | 239° |
| 2026-05-05 12:00 | 55.94536 | -3.38046 | 112 ft | 24 kts | 239° |
| 2026-05-05 12:00 | 55.94458 | -3.38277 | 112 ft | 21 kts | 239° |
| 2026-05-05 12:00 | 55.94384 | -3.38497 | 112 ft | 21 kts | 239° |
| 2026-05-05 12:01 | 55.94315 | -3.38701 | 112 ft | 13 kts | 239° |
| 2026-05-05 12:01 | 55.94288 | -3.38782 | 114 ft | 9 kts | 241° |
| 2026-05-05 12:01 | 55.94327 | -3.38909 | 113 ft | 11 kts | 329° |
| 2026-05-05 12:01 | 55.94375 | -3.38958 | 110 ft | 13 kts | 330° |
| 2026-05-05 12:02 | 55.94443 | -3.38894 | 112 ft | 0 kts | 59° |
| 2026-05-05 12:02 | 55.94445 | -3.38888 | 111 ft | 2 kts | 59° |
| 2026-05-05 12:02 | 55.94475 | -3.38798 | 110 ft | 31 kts | 59° |
| 2026-05-05 12:02 | 55.94914 | -3.37505 | 113 ft | 142 kts | 59° |
| 2026-05-05 12:03 | 55.95449 | -3.35987 | 903 ft | 146 kts | 56° |
| 2026-05-05 12:03 | 55.95900 | -3.35049 | 1536 ft | 150 kts | 48° |
| 2026-05-05 12:03 | 55.96670 | -3.33765 | 2529 ft | 147 kts | 44° |
| 2026-05-05 12:03 | 55.97372 | -3.32574 | 3600 ft | 141 kts | 46° |
| 2026-05-05 12:04 | 55.98148 | -3.31166 | 4033 ft | 178 kts | 43° |
| 2026-05-05 12:04 | 55.99123 | -3.29465 | 4329 ft | 213 kts | 42° |
| 2026-05-05 12:04 | 56.00259 | -3.27551 | 4691 ft | 234 kts | 41° |
| 2026-05-05 12:04 | 56.01519 | -3.25466 | 5064 ft | 256 kts | 41° |
| 2026-05-05 12:05 | 56.02850 | -3.23295 | 5681 ft | 261 kts | 40° |
| 2026-05-05 12:05 | 56.04196 | -3.21099 | 5950 ft | 266 kts | 43° |
| 2026-05-05 12:05 | 56.05184 | -3.18284 | 5982 ft | 268 kts | 73° |
| 2026-05-05 12:05 | 56.05320 | -3.14947 | 6000 ft | 273 kts | 94° |
| 2026-05-05 12:06 | 56.05084 | -3.11544 | 5999 ft | 278 kts | 101° |
| 2026-05-05 12:06 | 56.04221 | -3.08475 | 5995 ft | 281 kts | 133° |
| 2026-05-05 12:06 | 56.02728 | -3.06241 | 6009 ft | 281 kts | 143° |
| 2026-05-05 12:06 | 56.01157 | -3.04140 | 5996 ft | 282 kts | 143° |
| 2026-05-05 12:07 | 55.99592 | -3.02037 | 5995 ft | 281 kts | 143° |
| 2026-05-05 12:07 | 55.98048 | -2.99977 | 5995 ft | 280 kts | 147° |
| 2026-05-05 12:07 | 55.96212 | -2.98815 | 6007 ft | 277 kts | 176° |
| 2026-05-05 12:07 | 55.94372 | -2.99342 | 6005 ft | 272 kts | 205° |
| 2026-05-05 12:08 | 55.92678 | -3.00817 | 6013 ft | 272 kts | 208° |
| 2026-05-05 12:08 | 55.90970 | -3.02363 | 6387 ft | 278 kts | 208° |
| 2026-05-05 12:08 | 55.89242 | -3.03883 | 7496 ft | 276 kts | 207° |
| 2026-05-05 12:08 | 55.87507 | -3.05359 | 8538 ft | 278 kts | 207° |
| 2026-05-05 12:09 | 55.85735 | -3.06834 | 9480 ft | 283 kts | 206° |
| 2026-05-05 12:09 | 55.83943 | -3.08300 | 10400 ft | 288 kts | 207° |
| 2026-05-05 12:09 | 55.82026 | -3.09856 | 10799 ft | 314 kts | 207° |
| 2026-05-05 12:09 | 55.79973 | -3.11508 | 11359 ft | 330 kts | 207° |
| 2026-05-05 12:10 | 55.77862 | -3.13194 | 12218 ft | 335 kts | 207° |
| 2026-05-05 12:10 | 55.75728 | -3.14891 | 13190 ft | 337 kts | 207° |
| 2026-05-05 12:10 | 55.73580 | -3.16598 | 14168 ft | 340 kts | 207° |
| 2026-05-05 12:10 | 55.71290 | -3.17804 | 15092 ft | 351 kts | 188° |
| 2026-05-05 12:11 | 55.68837 | -3.17321 | 16036 ft | 363 kts | 165° |
| 2026-05-05 12:11 | 55.66593 | -3.15198 | 16939 ft | 373 kts | 144° |
| 2026-05-05 12:11 | 55.64592 | -3.12207 | 17784 ft | 379 kts | 141° |
| 2026-05-05 12:11 | 55.62605 | -3.09084 | 18544 ft | 385 kts | 141° |
| 2026-05-05 12:12 | 55.60594 | -3.05897 | 19328 ft | 391 kts | 141° |
| 2026-05-05 12:12 | 55.58556 | -3.02690 | 20165 ft | 394 kts | 141° |
| 2026-05-05 12:12 | 55.56494 | -2.99480 | 20950 ft | 397 kts | 141° |
| 2026-05-05 12:12 | 55.54404 | -2.96254 | 21681 ft | 401 kts | 141° |
| 2026-05-05 12:13 | 55.52291 | -2.93014 | 22398 ft | 405 kts | 141° |
| 2026-05-05 12:13 | 55.50153 | -2.89747 | 23096 ft | 408 kts | 141° |
| 2026-05-05 12:13 | 55.47993 | -2.86454 | 23739 ft | 413 kts | 141° |
| 2026-05-05 12:13 | 55.45810 | -2.83131 | 24377 ft | 416 kts | 141° |
| 2026-05-05 12:14 | 55.43608 | -2.79780 | 24979 ft | 420 kts | 141° |
| 2026-05-05 12:14 | 55.41387 | -2.76406 | 25566 ft | 424 kts | 141° |
| 2026-05-05 12:14 | 55.39138 | -2.72998 | 26110 ft | 428 kts | 142° |
| 2026-05-05 12:14 | 55.36947 | -2.69410 | 26647 ft | 434 kts | 135° |
| 2026-05-05 12:15 | 55.35072 | -2.65218 | 27217 ft | 439 kts | 124° |
| 2026-05-05 12:15 | 55.33545 | -2.60559 | 27770 ft | 442 kts | 120° |
| 2026-05-05 12:15 | 55.32075 | -2.55788 | 28276 ft | 445 kts | 120° |
| 2026-05-05 12:15 | 55.30582 | -2.50994 | 28734 ft | 449 kts | 121° |
| 2026-05-05 12:16 | 55.29049 | -2.46200 | 29182 ft | 452 kts | 121° |
| 2026-05-05 12:16 | 55.27510 | -2.41462 | 29633 ft | 454 kts | 122° |
| 2026-05-05 12:16 | 55.25936 | -2.36648 | 30059 ft | 457 kts | 122° |
| 2026-05-05 12:16 | 55.24350 | -2.31806 | 30460 ft | 459 kts | 122° |
| 2026-05-05 12:17 | 55.22755 | -2.26937 | 30837 ft | 462 kts | 122° |
| 2026-05-05 12:17 | 55.21146 | -2.22034 | 31183 ft | 465 kts | 122° |
| 2026-05-05 12:17 | 55.19533 | -2.17124 | 31618 ft | 465 kts | 122° |
| 2026-05-05 12:17 | 55.17920 | -2.12221 | 32155 ft | 464 kts | 122° |
| 2026-05-05 12:18 | 55.16317 | -2.07351 | 32693 ft | 461 kts | 122° |
| 2026-05-05 12:18 | 55.14716 | -2.02500 | 33180 ft | 460 kts | 122° |
| 2026-05-05 12:18 | 55.13115 | -1.97660 | 33606 ft | 460 kts | 122° |
| 2026-05-05 12:18 | 55.11510 | -1.92826 | 33994 ft | 460 kts | 122° |
| 2026-05-05 12:19 | 55.09901 | -1.88003 | 34432 ft | 459 kts | 122° |
| 2026-05-05 12:19 | 55.08295 | -1.83206 | 34881 ft | 458 kts | 122° |
| 2026-05-05 12:19 | 55.06689 | -1.78409 | 35232 ft | 458 kts | 122° |
| 2026-05-05 12:19 | 55.05076 | -1.73598 | 35586 ft | 459 kts | 122° |
| 2026-05-05 12:20 | 55.02074 | -1.63647 | 35653 ft | 466 kts | 116° |
| 2026-05-05 12:20 | 54.99508 | -1.53370 | 35641 ft | 458 kts | 115° |
| 2026-05-05 12:21 | 54.96995 | -1.43177 | 35653 ft | 459 kts | 115° |
| 2026-05-05 12:21 | 54.94429 | -1.33012 | 35652 ft | 460 kts | 116° |
| 2026-05-05 12:22 | 54.91823 | -1.22852 | 35647 ft | 460 kts | 116° |
| 2026-05-05 12:22 | 54.89198 | -1.12697 | 35645 ft | 461 kts | 116° |
| 2026-05-05 12:23 | 54.86564 | -1.02556 | 35648 ft | 460 kts | 116° |
| 2026-05-05 12:23 | 54.83928 | -0.92448 | 35644 ft | 460 kts | 116° |
| 2026-05-05 12:24 | 54.81287 | -0.82361 | 35647 ft | 459 kts | 116° |
| 2026-05-05 12:24 | 54.78645 | -0.72317 | 35644 ft | 458 kts | 116° |
| 2026-05-05 12:25 | 54.76000 | -0.62296 | 35637 ft | 457 kts | 116° |
| 2026-05-05 12:25 | 54.73348 | -0.52300 | 35632 ft | 457 kts | 116° |
| 2026-05-05 12:26 | 54.70688 | -0.42327 | 35642 ft | 456 kts | 116° |
| 2026-05-05 12:26 | 54.68025 | -0.32379 | 35626 ft | 456 kts | 116° |
| 2026-05-05 12:27 | 54.65353 | -0.22442 | 35615 ft | 456 kts | 116° |
| 2026-05-05 12:27 | 54.62672 | -0.12512 | 35613 ft | 457 kts | 116° |
| 2026-05-05 12:28 | 54.59980 | -0.02584 | 35609 ft | 457 kts | 117° |
| 2026-05-05 12:28 | 54.57298 | 0.07264 | 35616 ft | 456 kts | 117° |
| 2026-05-05 12:29 | 54.54595 | 0.17146 | 35604 ft | 456 kts | 117° |
| 2026-05-05 12:29 | 54.51887 | 0.27000 | 35607 ft | 454 kts | 117° |
| 2026-05-05 12:30 | 54.49178 | 0.36815 | 35608 ft | 453 kts | 117° |
| 2026-05-05 12:30 | 54.46469 | 0.46594 | 35609 ft | 453 kts | 117° |
| 2026-05-05 12:31 | 54.43758 | 0.56340 | 35608 ft | 452 kts | 117° |
| 2026-05-05 12:31 | 54.41036 | 0.66078 | 35608 ft | 452 kts | 117° |
| 2026-05-05 12:32 | 54.38314 | 0.75783 | 35605 ft | 452 kts | 117° |
| 2026-05-05 12:32 | 54.35573 | 0.85510 | 35600 ft | 453 kts | 117° |
| 2026-05-05 12:33 | 54.32827 | 0.95211 | 35601 ft | 453 kts | 117° |
| 2026-05-05 12:33 | 54.30074 | 1.04974 | 35694 ft | 459 kts | 118° |
| 2026-05-05 12:34 | 54.28669 | 1.09885 | 36025 ft | 459 kts | 118° |
| 2026-05-05 12:34 | 54.27264 | 1.14783 | 36441 ft | 458 kts | 118° |
| 2026-05-05 12:34 | 54.25863 | 1.19660 | 36859 ft | 456 kts | 118° |
| 2026-05-05 12:34 | 54.24465 | 1.24524 | 36987 ft | 457 kts | 118° |
| 2026-05-05 12:35 | 54.21705 | 1.34114 | 36985 ft | 448 kts | 118° |
| 2026-05-05 12:35 | 54.18963 | 1.43603 | 36999 ft | 445 kts | 118° |
| 2026-05-05 12:36 | 54.16216 | 1.53072 | 36995 ft | 445 kts | 118° |
| 2026-05-05 12:36 | 54.13460 | 1.62533 | 36994 ft | 445 kts | 118° |
| 2026-05-05 12:37 | 54.10700 | 1.71976 | 36991 ft | 445 kts | 118° |
| 2026-05-05 12:37 | 54.07928 | 1.81417 | 36992 ft | 445 kts | 118° |
| 2026-05-05 12:38 | 54.05154 | 1.90831 | 36991 ft | 444 kts | 118° |
| 2026-05-05 12:38 | 54.02378 | 2.00212 | 36992 ft | 444 kts | 118° |
| 2026-05-05 12:39 | 53.99593 | 2.09585 | 36990 ft | 444 kts | 118° |
| 2026-05-05 12:39 | 53.96801 | 2.18940 | 36991 ft | 444 kts | 118° |
| 2026-05-05 12:40 | 53.94001 | 2.28293 | 36990 ft | 444 kts | 119° |
| 2026-05-05 12:40 | 53.91196 | 2.37629 | 36991 ft | 444 kts | 119° |
| 2026-05-05 12:41 | 53.88257 | 2.46829 | 36984 ft | 442 kts | 126° |
| 2026-05-05 12:41 | 53.84648 | 2.55230 | 36989 ft | 441 kts | 129° |
| 2026-05-05 12:42 | 53.80966 | 2.63542 | 36994 ft | 441 kts | 129° |
| 2026-05-05 12:42 | 53.77320 | 2.71879 | 36990 ft | 441 kts | 129° |
| 2026-05-05 12:43 | 53.73691 | 2.80242 | 36992 ft | 441 kts | 128° |
| 2026-05-05 12:43 | 53.70061 | 2.88605 | 36987 ft | 441 kts | 129° |
| 2026-05-05 12:44 | 53.66431 | 2.96937 | 36992 ft | 441 kts | 129° |
| 2026-05-05 12:44 | 53.62795 | 3.05251 | 36992 ft | 441 kts | 129° |
| 2026-05-05 12:45 | 53.59155 | 3.13545 | 36992 ft | 440 kts | 129° |
| 2026-05-05 12:45 | 53.55539 | 3.21764 | 36994 ft | 440 kts | 129° |
| 2026-05-05 12:46 | 53.51888 | 3.30032 | 36995 ft | 440 kts | 129° |
| 2026-05-05 12:46 | 53.48234 | 3.38275 | 37002 ft | 440 kts | 129° |
| 2026-05-05 12:47 | 53.44557 | 3.46549 | 37011 ft | 439 kts | 129° |
| 2026-05-05 12:47 | 53.40895 | 3.54767 | 37010 ft | 440 kts | 129° |
| 2026-05-05 12:48 | 53.37046 | 3.62603 | 37019 ft | 438 kts | 134° |
| 2026-05-05 12:48 | 53.32953 | 3.70151 | 37018 ft | 438 kts | 135° |
| 2026-05-05 12:49 | 53.28853 | 3.77680 | 37020 ft | 438 kts | 135° |
| 2026-05-05 12:49 | 53.24769 | 3.85251 | 37019 ft | 439 kts | 135° |
| 2026-05-05 12:50 | 53.20698 | 3.92832 | 37016 ft | 439 kts | 135° |
| 2026-05-05 12:50 | 53.17311 | 3.99139 | 37008 ft | 439 kts | 135° |
| 2026-05-05 12:51 | 53.13235 | 4.06702 | 37005 ft | 438 kts | 135° |
| 2026-05-05 12:51 | 53.09156 | 4.14245 | 36996 ft | 438 kts | 135° |
| 2026-05-05 12:52 | 53.05073 | 4.21766 | 36988 ft | 437 kts | 135° |
| 2026-05-05 12:52 | 53.00995 | 4.29257 | 36982 ft | 437 kts | 136° |
| 2026-05-05 12:53 | 52.96913 | 4.36729 | 36979 ft | 436 kts | 136° |
| 2026-05-05 12:53 | 52.92836 | 4.44174 | 36969 ft | 436 kts | 136° |
| 2026-05-05 12:54 | 52.86714 | 4.55307 | 36961 ft | 436 kts | 136° |
| 2026-05-05 12:55 | 52.82631 | 4.62711 | 36962 ft | 435 kts | 136° |
| 2026-05-05 12:55 | 52.78547 | 4.70091 | 36969 ft | 435 kts | 136° |
| 2026-05-05 12:56 | 52.74457 | 4.77459 | 36964 ft | 435 kts | 136° |
| 2026-05-05 12:56 | 52.70370 | 4.84804 | 36963 ft | 435 kts | 136° |
| 2026-05-05 12:57 | 52.66271 | 4.92142 | 36957 ft | 435 kts | 136° |
| 2026-05-05 12:57 | 52.62170 | 4.99462 | 36953 ft | 435 kts | 137° |
| 2026-05-05 12:58 | 52.58066 | 5.06765 | 36952 ft | 434 kts | 137° |
| 2026-05-05 12:58 | 52.53962 | 5.14052 | 36946 ft | 434 kts | 137° |
| 2026-05-05 12:59 | 52.49850 | 5.21327 | 36945 ft | 435 kts | 137° |
| 2026-05-05 12:59 | 52.45730 | 5.28596 | 36944 ft | 435 kts | 137° |
| 2026-05-05 13:00 | 52.39559 | 5.39444 | 36936 ft | 435 kts | 137° |
| 2026-05-05 13:01 | 52.31775 | 5.53059 | 36935 ft | 435 kts | 138° |
| 2026-05-05 13:01 | 52.27641 | 5.60262 | 36936 ft | 434 kts | 138° |
| 2026-05-05 13:02 | 52.23506 | 5.67442 | 36930 ft | 433 kts | 138° |
| 2026-05-05 13:02 | 52.19374 | 5.74597 | 36927 ft | 433 kts | 138° |
| 2026-05-05 13:03 | 52.15264 | 5.81694 | 36912 ft | 433 kts | 138° |
| 2026-05-05 13:03 | 52.11123 | 5.88822 | 36922 ft | 433 kts | 138° |
| 2026-05-05 13:04 | 52.06979 | 5.95937 | 36913 ft | 433 kts | 138° |
| 2026-05-05 13:04 | 52.02832 | 6.03034 | 36909 ft | 433 kts | 139° |
| 2026-05-05 13:05 | 51.98684 | 6.10114 | 36924 ft | 433 kts | 139° |
| 2026-05-05 13:05 | 51.94535 | 6.17176 | 36918 ft | 432 kts | 139° |
| 2026-05-05 13:06 | 51.90388 | 6.24215 | 36917 ft | 432 kts | 139° |
| 2026-05-05 13:06 | 51.86230 | 6.31247 | 36909 ft | 432 kts | 139° |
| 2026-05-05 13:07 | 51.82281 | 6.37912 | 36905 ft | 432 kts | 139° |
| 2026-05-05 13:07 | 51.78120 | 6.44916 | 36910 ft | 432 kts | 139° |
| 2026-05-05 13:08 | 51.73960 | 6.51897 | 36912 ft | 432 kts | 139° |
| 2026-05-05 13:08 | 51.69799 | 6.58859 | 36904 ft | 431 kts | 139° |
| 2026-05-05 13:09 | 51.65636 | 6.65805 | 36902 ft | 430 kts | 139° |
| 2026-05-05 13:09 | 51.61486 | 6.72709 | 36889 ft | 430 kts | 139° |
| 2026-05-05 13:10 | 51.57509 | 6.79307 | 36890 ft | 429 kts | 139° |
| 2026-05-05 13:10 | 51.53352 | 6.86188 | 36887 ft | 429 kts | 139° |
| 2026-05-05 13:11 | 51.49392 | 6.92722 | 36887 ft | 428 kts | 139° |
| 2026-05-05 13:11 | 51.45459 | 6.99197 | 36889 ft | 428 kts | 139° |
| 2026-05-05 13:12 | 51.41305 | 7.06016 | 36889 ft | 428 kts | 139° |
| 2026-05-05 13:12 | 51.37141 | 7.12833 | 36885 ft | 427 kts | 139° |
| 2026-05-05 13:13 | 51.33314 | 7.19080 | 36884 ft | 427 kts | 140° |
| 2026-05-05 13:13 | 51.29178 | 7.25815 | 36887 ft | 427 kts | 140° |
| 2026-05-05 13:14 | 51.25141 | 7.32374 | 36883 ft | 427 kts | 140° |
| 2026-05-05 13:14 | 51.21250 | 7.38674 | 36880 ft | 428 kts | 140° |
| 2026-05-05 13:15 | 51.17297 | 7.45060 | 36875 ft | 428 kts | 140° |
| 2026-05-05 13:15 | 51.13110 | 7.51808 | 36867 ft | 428 kts | 140° |
| 2026-05-05 13:16 | 51.09152 | 7.58166 | 36875 ft | 428 kts | 140° |
| 2026-05-05 13:16 | 51.04967 | 7.64876 | 36870 ft | 427 kts | 140° |
| 2026-05-05 13:17 | 51.00787 | 7.71562 | 36867 ft | 426 kts | 140° |
| 2026-05-05 13:17 | 50.96605 | 7.78230 | 36863 ft | 426 kts | 140° |
| 2026-05-05 13:18 | 50.92437 | 7.84890 | 36859 ft | 425 kts | 139° |
| 2026-05-05 13:18 | 50.88320 | 7.91591 | 36854 ft | 424 kts | 139° |
| 2026-05-05 13:19 | 50.84434 | 7.97927 | 36863 ft | 423 kts | 139° |
| 2026-05-05 13:19 | 50.80324 | 8.04597 | 36862 ft | 423 kts | 140° |
| 2026-05-05 13:20 | 50.76207 | 8.11251 | 36863 ft | 423 kts | 140° |
| 2026-05-05 13:20 | 50.72089 | 8.17888 | 36861 ft | 423 kts | 140° |
| 2026-05-05 13:21 | 50.68046 | 8.24389 | 36861 ft | 422 kts | 140° |